Time;durP1;ratioP1;P1;durP2;ratioP2;P2;SDS_P1;SDS_P2;PMS_P1;PMS_P2;Temp;Humidity;BMP_temperature;BMP_pressure;BME280_temperature;BME280_humidity;BME280_pressure;Samples;Min_cycle;Max_cycle;Signal;HPM_P1;HPM_P2
2023/12/18 00:02:13;;;;;;;0.10;0.10;;;;;;;;;;4931486;29;20050;-87
2023/12/18 00:04:39;;;;;;;0.10;0.10;;;;;;;;;;4934323;29;20462;-87
2023/12/18 00:07:05;;;;;;;0.10;0.10;;;;;;;;;;4934923;29;20031;-87
2023/12/18 00:09:31;;;;;;;0.10;0.10;;;;;;;;;;4938204;29;20042;-88
2023/12/18 00:11:57;;;;;;;0.10;0.10;;;;;;;;;;4935748;29;20063;-84
2023/12/18 00:14:22;;;;;;;0.10;0.10;;;6.90;99.90;;;;;;4935087;29;20043;-85
2023/12/18 00:16:48;;;;;;;0.00;0.00;;;;;;;;;;4938142;29;20121;-85
2023/12/18 00:19:14;;;;;;;0.10;0.10;;;;;;;;;;4937895;29;20035;-87
2023/12/18 00:21:40;;;;;;;0.10;0.10;;;;;;;;;;4932201;29;20111;-90
2023/12/18 00:24:06;;;;;;;0.10;0.10;;;;;;;;;;4936910;29;20135;-86
2023/12/18 00:26:32;;;;;;;0.00;0.00;;;;;;;;;;4941758;29;20038;-85
2023/12/18 00:28:58;;;;;;;0.10;0.10;;;;;;;;;;4934684;29;20035;-88
2023/12/18 00:31:24;;;;;;;0.05;0.05;;;;;;;;;;4931953;29;20035;-85
2023/12/18 00:33:50;;;;;;;0.10;0.10;;;;;;;;;;4937242;29;20508;-87
2023/12/18 00:36:15;;;;;;;0.10;0.10;;;;;;;;;;4940921;29;20031;-87
2023/12/18 00:38:41;;;;;;;0.10;0.10;;;;;;;;;;4936174;29;20038;-85
2023/12/18 00:41:07;;;;;;;0.10;0.10;;;;;;;;;;4934440;29;20489;-88
2023/12/18 00:43:33;;;;;;;0.10;0.10;;;;;;;;;;4933045;29;20031;-90
2023/12/18 00:46:00;;;;;;;0.10;0.10;;;;;;;;;;4932133;29;20027;-88
2023/12/18 00:48:26;;;;;;;0.10;0.10;;;7.00;99.90;;;;;;4935377;29;20068;-88
2023/12/18 00:50:52;;;;;;;0.10;0.10;;;7.80;99.90;;;;;;4936997;28;20086;-88
2023/12/18 00:53:18;;;;;;;0.10;0.10;;;;;;;;;;4937803;29;20400;-90
2023/12/18 00:55:44;;;;;;;0.10;0.10;;;;;;;;;;4934124;29;20114;-90
2023/12/18 00:58:10;;;;;;;0.10;0.10;;;;;;;;;;4934423;29;20481;-87
2023/12/18 01:00:36;;;;;;;0.10;0.10;;;7.10;99.90;;;;;;4929476;29;20036;-88
2023/12/18 01:03:01;;;;;;;0.05;0.05;;;7.10;99.90;;;;;;4933964;29;20040;-88
2023/12/18 01:05:27;;;;;;;0.10;0.10;;;;;;;;;;4933278;29;20106;-87
2023/12/18 01:07:53;;;;;;;0.00;0.00;;;;;;;;;;4931433;29;20027;-88
2023/12/18 01:10:19;;;;;;;0.08;0.08;;;;;;;;;;4934842;29;20039;-87
2023/12/18 01:12:45;;;;;;;0.10;0.10;;;;;;;;;;4933690;29;20366;-87
2023/12/18 01:15:11;;;;;;;0.10;0.10;;;;;;;;;;4945882;28;20038;-86
2023/12/18 01:17:37;;;;;;;0.10;0.10;;;;;;;;;;4933650;29;20497;-88
2023/12/18 01:20:05;;;;;;;0.10;0.10;;;7.30;99.90;;;;;;4930834;29;20758;-88
2023/12/18 01:22:31;;;;;;;0.10;0.10;;;;;;;;;;4937055;29;20774;-89
2023/12/18 01:24:56;;;;;;;0.00;0.00;;;;;;;;;;4932250;29;20039;-85
2023/12/18 01:27:22;;;;;;;0.10;0.10;;;;;;;;;;4935675;28;20036;-89
2023/12/18 01:29:48;;;;;;;0.10;0.10;;;;;;;;;;4937372;28;20094;-87
2023/12/18 01:32:14;;;;;;;0.10;0.10;;;;;;;;;;4934345;29;20098;-85
2023/12/18 01:34:40;;;;;;;0.10;0.10;;;;;;;;;;4937498;29;20056;-86
2023/12/18 01:37:06;;;;;;;0.10;0.10;;;;;;;;;;4946555;28;20040;-85
2023/12/18 01:39:32;;;;;;;0.10;0.10;;;;;;;;;;4933208;29;20039;-86
2023/12/18 01:41:59;;;;;;;0.10;0.10;;;7.00;99.90;;;;;;4933626;29;20088;-87
2023/12/18 01:44:25;;;;;;;0.10;0.10;;;;;;;;;;4933468;29;20031;-89
2023/12/18 01:46:51;;;;;;;0.10;0.10;;;;;;;;;;4937125;28;20028;-88
2023/12/18 01:49:17;;;;;;;0.10;0.10;;;;;;;;;;4932542;29;20032;-87
2023/12/18 01:51:43;;;;;;;0.10;0.10;;;;;;;;;;4930892;29;20084;-89
2023/12/18 01:54:10;;;;;;;0.10;0.10;;;7.00;99.90;;;;;;4938584;29;20066;-88
2023/12/18 01:56:36;;;;;;;0.00;0.00;;;;;;;;;;4934368;29;20032;-87
2023/12/18 01:59:02;;;;;;;0.00;0.00;;;7.00;99.90;;;;;;4933294;29;20122;-85
2023/12/18 02:01:29;;;;;;;0.10;0.10;;;7.00;99.90;;;;;;4929734;29;20090;-89
2023/12/18 02:04:02;;;;;;;0.00;0.00;;;8.10;99.90;;;;;;4929107;29;20031;-86
2023/12/18 02:06:28;;;;;;;0.10;0.10;;;;;;;;;;4931498;29;20027;-88
2023/12/18 02:08:53;;;;;;;0.10;0.10;;;;;;;;;;4948355;28;20027;-87
2023/12/18 02:11:20;;;;;;;0.10;0.10;;;;;;;;;;4933014;29;20544;-86
2023/12/18 02:13:45;;;;;;;0.10;0.10;;;;;;;;;;4930723;28;20481;-89
2023/12/18 02:16:12;;;;;;;0.10;0.10;;;;;;;;;;4931261;29;20042;-87
2023/12/18 02:18:47;;;;;;;0.08;0.08;;;6.70;99.90;;;;;;4933790;29;20039;-85
2023/12/18 02:21:20;;;;;;;0.10;0.10;;;6.50;99.90;;;;;;4947172;28;20086;-91
2023/12/18 02:23:47;;;;;;;0.10;0.10;;;6.60;99.90;;;;;;4933497;29;20024;-86
2023/12/18 02:26:13;;;;;;;0.10;0.10;;;7.20;99.90;;;;;;4936462;29;20032;-88
2023/12/18 02:28:39;;;;;;;0.03;0.03;;;;;;;;;;4933042;29;20032;-89
2023/12/18 02:31:05;;;;;;;0.10;0.10;;;;;;;;;;4933805;29;20516;-89
2023/12/18 02:33:30;;;;;;;0.00;0.00;;;6.40;99.90;;;;;;4931183;29;20040;-88
2023/12/18 02:35:56;;;;;;;0.00;0.00;;;;;;;;;;4934034;29;20038;-89
2023/12/18 02:38:22;;;;;;;0.00;0.00;;;;;;;;;;4934800;28;20035;-87
2023/12/18 02:40:48;;;;;;;0.10;0.10;;;;;;;;;;4933455;29;20047;-89
2023/12/18 02:43:14;;;;;;;0.10;0.10;;;;;;;;;;4933059;29;20150;-87
2023/12/18 02:45:40;;;;;;;0.10;0.10;;;;;;;;;;4927632;29;20139;-87
2023/12/18 02:48:06;;;;;;;0.00;0.00;;;;;;;;;;4932045;29;20118;-87
2023/12/18 02:50:32;;;;;;;0.10;0.10;;;;;;;;;;4933018;29;20561;-84
2023/12/18 02:52:58;;;;;;;0.10;0.10;;;;;;;;;;4931452;29;20175;-88
2023/12/18 02:55:24;;;;;;;0.10;0.10;;;;;;;;;;4933099;29;20044;-88
2023/12/18 02:57:50;;;;;;;0.10;0.10;;;;;;;;;;4932737;29;20126;-88
2023/12/18 03:00:16;;;;;;;0.10;0.10;;;;;;;;;;4930357;29;20560;-86
2023/12/18 03:02:42;;;;;;;0.10;0.10;;;;;;;;;;4934792;29;20027;-89
2023/12/18 03:05:08;;;;;;;0.10;0.10;;;;;;;;;;4933324;29;20051;-90
2023/12/18 03:07:34;;;;;;;0.10;0.10;;;;;;;;;;4928170;29;20069;-88
2023/12/18 03:10:00;;;;;;;0.08;0.08;;;;;;;;;;4935125;29;20040;-88
2023/12/18 03:12:26;;;;;;;0.10;0.10;;;;;;;;;;4934663;28;20051;-88
2023/12/18 03:14:52;;;;;;;0.10;0.10;;;;;;;;;;4928512;29;21207;-88
2023/12/18 03:17:18;;;;;;;0.10;0.10;;;;;;;;;;4934062;29;20117;-89
2023/12/18 03:19:44;;;;;;;0.10;0.10;;;;;;;;;;4929232;29;20063;-88
2023/12/18 03:22:10;;;;;;;0.10;0.10;;;;;;;;;;4932253;29;20097;-87
2023/12/18 03:24:39;;;;;;;0.10;0.10;;;6.40;99.90;;;;;;4930952;29;20110;-88
2023/12/18 03:27:06;;;;;;;0.10;0.10;;;;;;;;;;4935662;28;20166;-88
2023/12/18 03:29:32;;;;;;;0.10;0.10;;;;;;;;;;4932890;29;20119;-88
2023/12/18 03:31:57;;;;;;;0.10;0.10;;;6.40;99.90;;;;;;4929454;29;21221;-89
2023/12/18 03:34:23;;;;;;;0.10;0.10;;;;;;;;;;4929572;29;20045;-87
2023/12/18 03:36:49;;;;;;;0.10;0.10;;;6.40;99.90;;;;;;4929567;29;20039;-87
2023/12/18 03:39:15;;;;;;;0.10;0.10;;;;;;;;;;4928213;29;20060;-88
2023/12/18 03:41:40;;;;;;;0.10;0.10;;;;;;;;;;4929076;29;20051;-87
2023/12/18 03:44:06;;;;;;;0.10;0.10;;;;;;;;;;4932297;29;20058;-86
2023/12/18 03:46:32;;;;;;;0.10;0.10;;;;;;;;;;4930005;29;20114;-87
2023/12/18 03:48:58;;;;;;;0.10;0.10;;;6.50;99.90;;;;;;4934887;29;20032;-88
2023/12/18 03:51:24;;;;;;;0.10;0.10;;;;;;;;;;4932636;28;20039;-88
2023/12/18 03:53:50;;;;;;;0.10;0.10;;;;;;;;;;4930557;29;20036;-88
2023/12/18 03:56:16;;;;;;;0.10;0.10;;;;;;;;;;4935150;29;20063;-90
2023/12/18 03:58:42;;;;;;;0.10;0.10;;;;;;;;;;4935386;29;20035;-89
2023/12/18 04:01:08;;;;;;;0.10;0.10;;;;;;;;;;4933777;28;20039;-88
2023/12/18 04:03:34;;;;;;;0.10;0.10;;;;;;;;;;4936036;29;20722;-87
2023/12/18 04:06:01;;;;;;;0.10;0.10;;;;;;;;;;4934153;29;20110;-90
2023/12/18 04:08:27;;;;;;;0.00;0.00;;;;;;;;;;4935800;28;20040;-88
2023/12/18 04:10:53;;;;;;;0.05;0.05;;;;;;;;;;4933475;29;20715;-88
2023/12/18 04:13:18;;;;;;;0.10;0.10;;;6.50;99.90;;;;;;4938186;29;20543;-88
2023/12/18 04:15:44;;;;;;;0.10;0.10;;;;;;;;;;4932428;29;20032;-87
2023/12/18 04:18:10;;;;;;;0.00;0.00;;;;;;;;;;4934453;28;20039;-87
2023/12/18 04:20:36;;;;;;;0.10;0.10;;;;;;;;;;4934117;29;20042;-85
2023/12/18 04:23:02;;;;;;;0.10;0.10;;;;;;;;;;4950568;28;20038;-87
2023/12/18 04:25:28;;;;;;;0.10;0.10;;;;;;;;;;4931531;29;20043;-87
2023/12/18 04:27:54;;;;;;;0.10;0.10;;;;;;;;;;4936736;28;20032;-88
2023/12/18 04:30:20;;;;;;;0.10;0.10;;;;;;;;;;4936415;29;20036;-88
2023/12/18 04:32:46;;;;;;;0.10;0.10;;;;;;;;;;4935631;29;20063;-88
2023/12/18 04:35:11;;;;;;;0.00;0.00;;;6.60;99.90;;;;;;4934073;29;20035;-88
2023/12/18 04:37:37;;;;;;;0.05;0.05;;;6.70;99.90;;;;;;4933116;29;20034;-88
2023/12/18 04:40:03;;;;;;;0.10;0.10;;;;;;;;;;4936590;29;20370;-87
2023/12/18 04:42:29;;;;;;;0.10;0.10;;;;;;;;;;4934921;29;20034;-86
2023/12/18 04:44:55;;;;;;;0.10;0.10;;;;;;;;;;4932910;29;20036;-86
2023/12/18 04:47:21;;;;;;;0.10;0.10;;;;;;;;;;4944955;29;20042;-86
2023/12/18 04:49:47;;;;;;;0.10;0.10;;;;;;;;;;4944207;29;20042;-92
2023/12/18 04:52:13;;;;;;;0.10;0.10;;;;;;;;;;4935508;29;20087;-92
2023/12/18 04:54:39;;;;;;;0.10;0.10;;;;;;;;;;4941054;29;20125;-93
2023/12/18 04:57:05;;;;;;;0.00;0.00;;;;;;;;;;4937716;29;20067;-89
2023/12/18 04:59:31;;;;;;;0.10;0.10;;;;;;;;;;4936621;29;20050;-94
2023/12/18 05:01:57;;;;;;;0.10;0.10;;;;;;;;;;4935354;29;20460;-90
2023/12/18 05:04:24;;;;;;;0.10;0.10;;;6.70;99.90;;;;;;4936427;29;20404;-92
2023/12/18 05:06:50;;;;;;;0.10;0.10;;;;;;;;;;4952982;28;20185;-92
2023/12/18 05:09:16;;;;;;;0.10;0.10;;;;;;;;;;4941846;29;20286;-90
2023/12/18 05:11:42;;;;;;;0.10;0.10;;;;;;;;;;4941812;29;20502;-91
2023/12/18 05:14:08;;;;;;;0.10;0.10;;;;;;;;;;4930865;29;20043;-87
2023/12/18 05:16:33;;;;;;;0.10;0.10;;;6.90;99.90;;;;;;4940101;29;20031;-90
2023/12/18 05:18:59;;;;;;;0.00;0.00;;;6.70;99.90;;;;;;4935783;29;20103;-93
2023/12/18 05:21:25;;;;;;;0.10;0.10;;;6.70;99.90;;;;;;4939551;29;20055;-90
2023/12/18 05:23:51;;;;;;;0.10;0.10;;;;;;;;;;4937778;29;20102;-92
2023/12/18 05:26:16;;;;;;;0.10;0.10;;;6.70;99.90;;;;;;4943594;29;20050;-88
2023/12/18 05:28:42;;;;;;;0.10;0.10;;;;;;;;;;4938001;29;20066;-88
2023/12/18 05:31:09;;;;;;;0.10;0.10;;;6.70;99.90;;;;;;4935020;29;20035;-90
2023/12/18 05:33:35;;;;;;;0.10;0.10;;;;;;;;;;4937761;29;20433;-87
2023/12/18 05:36:01;;;;;;;0.10;0.10;;;;;;;;;;4936657;29;20082;-87
2023/12/18 05:38:27;;;;;;;0.10;0.10;;;;;;;;;;4938178;28;20047;-91
2023/12/18 05:40:52;;;;;;;0.10;0.10;;;6.60;99.90;;;;;;4938345;29;20035;-90
2023/12/18 05:43:18;;;;;;;0.00;0.00;;;6.60;99.90;;;;;;4936610;29;20035;-90
2023/12/18 05:45:44;;;;;;;0.10;0.10;;;;;;;;;;4937093;29;20925;-91
2023/12/18 05:48:10;;;;;;;0.10;0.10;;;;;;;;;;4936285;29;20381;-88
2023/12/18 05:50:36;;;;;;;0.10;0.10;;;;;;;;;;4937022;29;20032;-88
2023/12/18 05:53:01;;;;;;;0.10;0.10;;;6.70;99.90;;;;;;4938281;29;20682;-87
2023/12/18 05:55:27;;;;;;;0.10;0.10;;;6.60;99.90;;;;;;4937319;29;20127;-89
2023/12/18 05:57:53;;;;;;;0.10;0.10;;;;;;;;;;4938179;29;20031;-86
2023/12/18 06:00:19;;;;;;;0.10;0.10;;;6.70;99.90;;;;;;4934254;29;20549;-90
2023/12/18 06:02:45;;;;;;;0.00;0.00;;;;;;;;;;4935674;29;20532;-90
2023/12/18 06:05:11;;;;;;;0.10;0.10;;;;;;;;;;4935763;29;20028;-90
2023/12/18 06:07:37;;;;;;;0.10;0.10;;;;;;;;;;4932452;29;20493;-89
2023/12/18 06:10:03;;;;;;;0.10;0.10;;;;;;;;;;4935070;29;20036;-88
2023/12/18 06:12:29;;;;;;;0.10;0.10;;;;;;;;;;4933773;29;20024;-87
2023/12/18 06:14:55;;;;;;;0.10;0.10;;;;;;;;;;4927348;29;20043;-86
2023/12/18 06:17:21;;;;;;;0.10;0.10;;;6.60;99.90;;;;;;4929852;29;20394;-88
2023/12/18 06:19:47;;;;;;;0.00;0.00;;;;;;;;;;4930582;29;20118;-88
2023/12/18 06:22:13;;;;;;;0.10;0.10;;;;;;;;;;4932569;29;20039;-87
2023/12/18 06:24:39;;;;;;;0.10;0.10;;;6.70;99.90;;;;;;4929476;29;20390;-86
2023/12/18 06:27:05;;;;;;;0.10;0.10;;;7.00;99.90;;;;;;4931174;29;20070;-89
2023/12/18 06:29:30;;;;;;;0.10;0.10;;;;;;;;;;4931784;29;20639;-88
2023/12/18 06:31:57;;;;;;;0.10;0.10;;;;;;;;;;4930093;29;20035;-90
2023/12/18 06:34:23;;;;;;;0.00;0.00;;;;;;;;;;4929028;29;20043;-86
2023/12/18 06:36:49;;;;;;;0.10;0.10;;;;;;;;;;4928361;29;20050;-89
2023/12/18 06:39:15;;;;;;;0.05;0.05;;;;;;;;;;4931522;29;20497;-90
2023/12/18 08:16:07;;;;;;;0.10;0.10;;;6.80;99.90;;;;;;684993;23;21713;-87
2023/12/18 08:18:33;;;;;;;0.10;0.10;;;;;;;;;;4939082;29;20040;-92
2023/12/18 08:20:59;;;;;;;0.10;0.10;;;;;;;;;;4944770;29;20115;-92
2023/12/18 08:23:26;;;;;;;0.10;0.10;;;;;;;;;;4944356;29;20032;-92
2023/12/18 08:25:52;;;;;;;0.10;0.10;;;;;;;;;;4941513;29;20042;-93
2023/12/18 09:35:31;;;;;;;0.10;0.10;;;;;;;;;;4918016;29;20059;-94
2023/12/18 09:37:57;;;;;;;0.10;0.10;;;;;;;;;;4922741;29;20135;-93
2023/12/18 09:40:23;;;;;;;0.10;0.10;;;;;;;;;;4911647;29;20028;-93
2023/12/18 09:42:53;;;;;;;0.10;0.10;;;;;;;;;;4911885;29;20048;-94
2023/12/18 09:45:23;;;;;;;0.10;0.10;;;7.40;99.90;;;;;;4927442;29;20039;-93
2023/12/18 09:47:53;;;;;;;0.10;0.10;;;;;;;;;;4911397;29;20423;-93
2023/12/18 09:50:19;;;;;;;0.10;0.10;;;;;;;;;;4914255;29;20040;-93
2023/12/18 09:52:59;;;;;;;0.10;0.10;;;7.20;99.90;;;;;;4925139;29;20460;-91
2023/12/18 09:55:24;;;;;;;;;;;7.20;99.90;;;;;;4925829;29;20048;-93
2023/12/18 09:57:56;;;;;;;0.10;0.10;;;7.30;99.90;;;;;;4911546;29;19935;-93
2023/12/18 10:00:22;;;;;;;0.10;0.10;;;;;;;;;;4913910;29;20024;-94
2023/12/18 10:02:48;;;;;;;0.10;0.10;;;;;;;;;;4929166;29;20025;-94
2023/12/18 10:05:17;;;;;;;0.10;0.10;;;;;;;;;;4914500;29;20028;-93
2023/12/18 10:07:45;;;;;;;0.10;0.10;;;;;;;;;;4910547;29;20028;-91
2023/12/18 10:10:18;;;;;;;0.10;0.10;;;;;;;;;;4931436;29;20147;-91
2023/12/18 10:12:44;;;;;;;0.10;0.10;;;;;;;;;;4926950;29;20028;-91
2023/12/18 10:15:14;;;;;;;0.10;0.10;;;7.50;99.90;;;;;;4928482;29;20032;-92
2023/12/18 10:17:43;;;;;;;;;;;7.40;99.90;;;;;;4914862;29;20031;-93
2023/12/18 10:20:17;;;;;;;0.10;0.10;;;;;;;;;;4914804;29;19950;-91
2023/12/18 10:22:44;;;;;;;0.08;0.08;;;;;;;;;;4915016;29;20052;-93
2023/12/18 10:25:12;;;;;;;0.10;0.10;;;;;;;;;;4912090;29;20389;-92
2023/12/18 10:27:38;;;;;;;0.10;0.10;;;;;;;;;;4928447;28;20029;-93
2023/12/18 10:30:08;;;;;;;0.10;0.10;;;;;;;;;;4927266;29;20177;-91
2023/12/18 10:32:37;;;;;;;0.00;0.00;;;;;;;;;;4911125;29;20073;-90
2023/12/18 10:35:16;;;;;;;0.08;0.08;;;7.70;99.90;;;;;;4923687;29;20544;-91
2023/12/18 10:37:52;;;;;;;0.10;0.10;;;7.70;99.90;;;;;;4915214;29;20513;-91
2023/12/18 10:40:20;;;;;;;0.10;0.10;;;;;;;;;;4908500;29;20032;-92
2023/12/18 10:42:55;;;;;;;0.10;0.10;;;7.60;99.90;;;;;;4912087;29;20665;-93
2023/12/18 10:45:21;;;;;;;0.08;0.08;;;;;;;;;;4922013;29;20024;-93
2023/12/18 10:47:48;;;;;;;0.10;0.10;;;7.70;99.90;;;;;;4926723;29;20040;-92
2023/12/18 10:50:16;;;;;;;0.10;0.10;;;;;;;;;;4926504;29;20024;-93
2023/12/18 10:52:46;;;;;;;0.00;0.00;;;7.60;99.90;;;;;;4925346;29;20024;-92
2023/12/18 10:55:12;;;;;;;0.10;0.10;;;;;;;;;;4927236;29;20036;-93
2023/12/18 10:57:41;;;;;;;0.10;0.10;;;7.50;99.90;;;;;;4940564;29;20032;-93
2023/12/18 11:00:08;;;;;;;0.10;0.10;;;;;;;;;;4930787;29;20100;-89
2023/12/18 11:02:35;;;;;;;0.03;0.03;;;7.50;99.90;;;;;;4936422;29;20046;-90
2023/12/18 11:05:01;;;;;;;0.10;0.10;;;;;;;;;;4919527;29;20028;-90
2023/12/18 11:07:28;;;;;;;0.10;0.10;;;;;;;;;;4920971;29;20032;-91
2023/12/18 11:09:54;;;;;;;0.00;0.00;;;;;;;;;;4923342;29;20030;-92
2023/12/18 11:12:21;;;;;;;0.00;0.00;;;7.30;99.90;;;;;;4917248;29;20032;-90
2023/12/18 11:15:11;;;;;;;0.03;0.03;;;7.30;99.90;;;;;;4920826;29;20051;-91
2023/12/18 11:18:03;;;;;;;0.10;0.10;;;7.30;99.90;;;;;;4942357;29;20028;-93
2023/12/18 11:20:33;;;;;;;0.00;0.00;;;7.40;99.90;;;;;;4909660;29;20079;-92
2023/12/18 11:23:01;;;;;;;0.10;0.10;;;7.40;99.90;;;;;;4911915;29;20032;-92
2023/12/18 11:25:37;;;;;;;0.10;0.10;;;7.50;99.90;;;;;;4915171;29;20457;-92
2023/12/18 11:28:06;;;;;;;0.10;0.10;;;7.50;99.90;;;;;;4924440;29;20028;-91
2023/12/18 11:30:33;;;;;;;0.00;0.00;;;7.60;99.90;;;;;;4908021;29;20024;-94
2023/12/18 11:33:09;;;;;;;0.10;0.10;;;7.60;99.90;;;;;;4914746;29;20059;-91
2023/12/18 11:35:35;;;;;;;0.10;0.10;;;;;;;;;;4910774;29;20131;-92
2023/12/18 11:38:09;;;;;;;0.10;0.10;;;7.60;99.90;;;;;;4927004;29;20043;-91
2023/12/18 11:40:42;;;;;;;0.03;0.03;;;7.60;99.90;;;;;;4927832;29;20043;-92
2023/12/18 11:43:30;;;;;;;0.10;0.10;;;7.70;99.90;;;;;;4911071;29;20028;-91
2023/12/18 11:45:59;;;;;;;0.10;0.10;;;7.70;99.90;;;;;;4929914;29;20091;-90
2023/12/18 11:48:25;;;;;;;0.10;0.10;;;;;;;;;;4909763;29;20661;-92
2023/12/18 11:50:51;;;;;;;0.00;0.00;;;;;;;;;;4911204;29;20024;-93
2023/12/18 11:53:20;;;;;;;0.10;0.10;;;;;;;;;;4913947;29;20127;-92
2023/12/18 11:55:50;;;;;;;0.10;0.10;;;8.10;99.90;;;;;;4937275;29;20498;-91
2023/12/18 11:58:18;;;;;;;0.10;0.10;;;8.00;99.90;;;;;;4923026;29;20039;-89
2023/12/18 12:00:45;;;;;;;0.10;0.10;;;8.00;99.90;;;;;;4932699;29;20072;-89
2023/12/18 12:03:17;;;;;;;0.00;0.00;;;;;;;;;;4923340;29;20055;-89
2023/12/18 12:05:49;;;;;;;0.10;0.10;;;;;;;;;;4934666;29;20464;-90
2023/12/18 12:08:30;;;;;;;0.10;0.10;;;;;;;;;;4914710;29;20558;-90
2023/12/18 12:13:55;;;;;;;0.10;0.10;;;;;;;;;;4913541;29;20428;-91
2023/12/18 12:16:21;;;;;;;0.10;0.10;;;;;;;;;;4917273;29;20506;-90
2023/12/18 12:22:25;;;;;;;0.10;0.10;;;;;;;;;;4920151;29;20470;-89
2023/12/18 12:25:06;;;;;;;0.10;0.10;;;7.80;99.90;;;;;;4934200;29;20382;-90
2023/12/18 12:27:33;;;;;;;0.00;0.00;;;;;;;;;;4917730;29;20451;-91
2023/12/18 12:31:05;;;;;;;0.00;0.00;;;7.90;99.90;;;;;;4918927;29;20406;-92
2023/12/18 12:34:17;;;;;;;0.10;0.10;;;7.90;99.90;;;;;;4878880;29;20040;-91
2023/12/18 12:37:10;;;;;;;0.10;0.10;;;;;;;;;;4924547;29;20036;-92
2023/12/18 12:40:34;;;;;;;0.10;0.10;;;7.90;99.90;;;;;;4921176;29;20024;-91
2023/12/18 12:43:03;;;;;;;0.00;0.00;;;;;;;;;;4895982;29;20044;-94
2023/12/18 12:45:29;;;;;;;0.10;0.10;;;;;;;;;;4928042;29;20046;-92
2023/12/18 12:47:59;;;;;;;0.10;0.10;;;;;;;;;;4919643;29;20028;-92
2023/12/18 12:50:25;;;;;;;0.03;0.03;;;;;;;;;;4938980;29;20115;-90
2023/12/18 12:53:25;;;;;;;0.10;0.10;;;7.80;99.90;;;;;;4932287;29;20032;-91
2023/12/18 12:59:13;;;;;;;;;;;7.80;99.90;;;;;;4947325;28;19917;-91
2023/12/18 13:04:42;;;;;;;0.10;0.10;;;;;;;;;;4927790;29;20039;-90
2023/12/18 13:07:21;;;;;;;0.00;0.00;;;;;;;;;;4929622;29;20028;-91
2023/12/18 13:09:51;;;;;;;0.00;0.00;;;;;;;;;;4949368;28;20051;-92
2023/12/18 13:12:18;;;;;;;0.10;0.10;;;;;;;;;;4939299;29;20047;-92
2023/12/18 13:14:57;;;;;;;0.10;0.10;;;7.70;99.90;;;;;;4950147;29;20443;-92
2023/12/18 13:21:32;;;;;;;0.10;0.10;;;;;;;;;;4909789;29;20112;-91
2023/12/18 13:27:44;;;;;;;;;;;;;;;;;;;;;
2023/12/18 13:30:10;;;;;;;;;;;7.60;99.90;;;;;;4905812;29;20092;-93
2023/12/18 13:32:36;;;;;;;0.10;0.10;;;;;;;;;;4908577;29;19911;-90
2023/12/18 14:02:02;;;;;;;0.10;0.10;;;;;;;;;;4920657;29;20074;-89
2023/12/18 14:04:28;;;;;;;0.10;0.10;;;;;;;;;;4935041;28;20020;-92
2023/12/18 14:06:57;;;;;;;0.10;0.10;;;;;;;;;;4939746;29;20052;-91
2023/12/18 15:47:45;;;;;;;0.00;0.00;;;;;;;;;;4920585;29;20063;-89
2023/12/18 15:50:11;;;;;;;0.10;0.10;;;;;;;;;;4914618;29;20028;-91
2023/12/18 15:52:37;;;;;;;0.10;0.10;;;;;;;;;;4918040;29;20055;-90
2023/12/18 15:55:03;;;;;;;0.00;0.00;;;;;;;;;;4914979;29;20028;-90
2023/12/18 15:57:29;;;;;;;0.10;0.10;;;;;;;;;;4917753;29;20032;-92
2023/12/18 15:59:55;;;;;;;0.10;0.10;;;;;;;;;;4918045;29;20495;-92
2023/12/18 16:02:21;;;;;;;0.10;0.10;;;;;;;;;;4920667;29;20040;-91
2023/12/18 16:04:47;;;;;;;0.10;0.10;;;;;;;;;;4927292;29;20031;-92
2023/12/18 16:07:12;;;;;;;0.10;0.10;;;7.50;99.90;;;;;;4927135;29;20024;-91
2023/12/18 16:09:38;;;;;;;0.10;0.10;;;;;;;;;;4924508;29;20043;-92
2023/12/18 16:12:04;;;;;;;0.00;0.00;;;7.50;99.90;;;;;;4922122;29;20040;-93
2023/12/18 16:14:30;;;;;;;0.10;0.10;;;;;;;;;;4923510;29;20028;-91
2023/12/18 16:16:56;;;;;;;0.10;0.10;;;;;;;;;;4939801;29;20047;-92
2023/12/18 16:19:22;;;;;;;0.10;0.10;;;;;;;;;;4944290;29;20028;-92
2023/12/18 16:21:48;;;;;;;0.00;0.00;;;;;;;;;;4928540;29;20024;-92
2023/12/18 16:24:14;;;;;;;0.10;0.10;;;;;;;;;;4924581;29;20052;-91
2023/12/18 16:26:49;;;;;;;0.08;0.08;;;;;;;;;;4928048;29;20024;-90
2023/12/18 16:29:15;;;;;;;0.10;0.10;;;;;;;;;;4937671;29;20040;-91
2023/12/18 16:31:41;;;;;;;0.00;0.00;;;;;;;;;;4923855;29;20068;-90
2023/12/18 16:34:07;;;;;;;0.00;0.00;;;;;;;;;;4919735;29;20071;-92
2023/12/18 16:36:33;;;;;;;0.10;0.10;;;;;;;;;;4932801;29;20043;-91
2023/12/18 16:38:59;;;;;;;0.10;0.10;;;;;;;;;;4918481;29;20028;-91
2023/12/18 16:41:29;;;;;;;0.10;0.10;;;7.50;99.90;;;;;;4918042;29;20507;-92
2023/12/18 16:43:55;;;;;;;0.00;0.00;;;;;;;;;;4919384;29;20037;-92
2023/12/18 16:46:21;;;;;;;0.10;0.10;;;;;;;;;;4935131;29;20036;-91
2023/12/18 16:48:47;;;;;;;0.10;0.10;;;;;;;;;;4937125;29;20539;-92
2023/12/18 16:51:13;;;;;;;0.10;0.10;;;;;;;;;;4921241;29;20531;-91
2023/12/18 16:53:39;;;;;;;0.10;0.10;;;;;;;;;;4938729;29;20068;-91
2023/12/18 16:56:05;;;;;;;0.00;0.00;;;;;;;;;;4921757;29;20060;-92
2023/12/18 16:58:31;;;;;;;0.10;0.10;;;;;;;;;;4935606;29;20453;-92
2023/12/18 17:00:57;;;;;;;0.10;0.10;;;;;;;;;;4922327;29;20078;-91
2023/12/18 17:03:23;;;;;;;0.00;0.00;;;;;;;;;;4934203;29;20044;-92
2023/12/18 17:05:49;;;;;;;0.10;0.10;;;7.50;99.90;;;;;;4907054;29;20043;-92
2023/12/18 17:08:15;;;;;;;0.10;0.10;;;;;;;;;;4915657;29;20032;-92
2023/12/18 17:10:41;;;;;;;0.10;0.10;;;;;;;;;;4917639;29;20036;-90
2023/12/18 17:13:07;;;;;;;0.10;0.10;;;;;;;;;;4920077;29;20046;-91
2023/12/18 17:15:33;;;;;;;0.10;0.10;;;;;;;;;;4919351;29;20040;-92
2023/12/18 17:17:59;;;;;;;0.10;0.10;;;;;;;;;;4936022;29;20024;-92
2023/12/18 17:20:26;;;;;;;0.10;0.10;;;7.60;99.90;;;;;;4919080;29;20103;-92
2023/12/18 17:22:51;;;;;;;0.00;0.00;;;;;;;;;;4928881;29;20032;-93
2023/12/18 17:25:17;;;;;;;0.10;0.10;;;7.50;99.90;;;;;;4940711;29;20507;-91
2023/12/18 17:27:43;;;;;;;0.05;0.05;;;;;;;;;;4918658;29;20039;-91
2023/12/18 17:30:09;;;;;;;0.10;0.10;;;;;;;;;;4915755;29;20036;-92
2023/12/18 17:32:36;;;;;;;0.00;0.00;;;7.60;99.90;;;;;;4931183;29;20617;-91
2023/12/18 17:35:02;;;;;;;0.10;0.10;;;;;;;;;;4915263;29;20593;-92
2023/12/18 17:37:28;;;;;;;0.10;0.10;;;;;;;;;;4930776;29;20103;-91
2023/12/18 17:39:54;;;;;;;0.10;0.10;;;;;;;;;;4921183;29;20039;-91
2023/12/18 17:42:20;;;;;;;0.10;0.10;;;;;;;;;;4923703;29;20040;-91
2023/12/18 17:44:45;;;;;;;0.00;0.00;;;;;;;;;;4940992;29;20032;-92
2023/12/18 17:47:11;;;;;;;0.10;0.10;;;;;;;;;;4886560;29;1089437;-91
2023/12/18 17:49:39;;;;;;;0.10;0.10;;;;;;;;;;4920783;29;20031;-91
2023/12/18 17:52:05;;;;;;;0.00;0.00;;;;;;;;;;4935413;29;20098;-91
2023/12/18 17:54:31;;;;;;;0.00;0.00;;;;;;;;;;4915687;29;20506;-93
2023/12/18 17:56:57;;;;;;;0.10;0.10;;;;;;;;;;4931460;29;20043;-91
2023/12/18 17:59:22;;;;;;;0.10;0.10;;;;;;;;;;4931424;29;20423;-91
2023/12/18 18:01:48;;;;;;;0.00;0.00;;;;;;;;;;4932971;29;20032;-91
2023/12/18 18:04:15;;;;;;;0.00;0.00;;;;;;;;;;4929228;29;20040;-90
2023/12/18 18:06:41;;;;;;;0.10;0.10;;;;;;;;;;4917547;29;20028;-92
2023/12/18 18:09:06;;;;;;;0.10;0.10;;;;;;;;;;4935547;29;20324;-91
2023/12/18 18:11:32;;;;;;;0.00;0.00;;;;;;;;;;4934927;29;20029;-92
2023/12/18 18:13:59;;;;;;;0.10;0.10;;;;;;;;;;4921134;29;20416;-91
2023/12/18 18:16:25;;;;;;;0.00;0.00;;;;;;;;;;4921612;29;20044;-92
2023/12/18 18:18:51;;;;;;;0.10;0.10;;;;;;;;;;4920609;29;20032;-91
2023/12/18 18:21:18;;;;;;;0.05;0.05;;;;;;;;;;4924838;29;20063;-91
2023/12/18 18:23:44;;;;;;;0.10;0.10;;;;;;;;;;4921226;29;20040;-92
2023/12/18 18:26:11;;;;;;;0.10;0.10;;;;;;;;;;4915811;29;21405;-92
2023/12/18 18:28:38;;;;;;;0.00;0.00;;;;;;;;;;4915716;29;20031;-91
2023/12/18 18:31:04;;;;;;;0.10;0.10;;;;;;;;;;4911804;29;20067;-90
2023/12/18 18:33:32;;;;;;;0.10;0.10;;;;;;;;;;4910728;29;20496;-92
2023/12/18 18:35:58;;;;;;;0.10;0.10;;;;;;;;;;4913892;29;20042;-91
2023/12/18 18:38:27;;;;;;;0.10;0.10;;;;;;;;;;4913517;29;20028;-90
2023/12/18 18:40:53;;;;;;;0.10;0.10;;;;;;;;;;4930284;29;20476;-91
2023/12/18 18:43:19;;;;;;;0.00;0.00;;;;;;;;;;4915293;29;20080;-90
2023/12/18 18:45:45;;;;;;;0.10;0.10;;;;;;;;;;4917290;29;20035;-92
2023/12/18 18:48:11;;;;;;;0.10;0.10;;;;;;;;;;4920133;29;20036;-91
2023/12/18 18:50:37;;;;;;;0.10;0.10;;;;;;;;;;4917334;29;20040;-91
2023/12/18 18:53:05;;;;;;;0.10;0.10;;;7.50;99.90;;;;;;4920925;29;21061;-91
2023/12/18 18:55:31;;;;;;;0.10;0.10;;;7.40;99.90;;;;;;4919602;29;20039;-91
2023/12/18 19:21:24;;;;;;;0.10;0.10;;;;;;;;;;4917040;29;20056;-92
2023/12/18 19:23:50;;;;;;;0.05;0.05;;;;;;;;;;4932290;29;20116;-92
2023/12/18 19:26:15;;;;;;;0.10;0.10;;;;;;;;;;4933355;29;20051;-91
2023/12/18 19:28:41;;;;;;;0.10;0.10;;;;;;;;;;4930383;29;20119;-92
2023/12/18 19:31:07;;;;;;;0.10;0.10;;;;;;;;;;4922177;29;20032;-91
2023/12/18 19:33:36;;;;;;;0.10;0.10;;;7.40;99.90;;;;;;4935370;29;20031;-90
2023/12/18 19:36:06;;;;;;;0.10;0.10;;;;;;;;;;4917886;29;20066;-90
2023/12/18 19:38:33;;;;;;;0.00;0.00;;;;;;;;;;4918457;29;20036;-89
2023/12/18 19:40:59;;;;;;;0.10;0.10;;;;;;;;;;4918180;29;20029;-91
2023/12/18 19:43:25;;;;;;;0.10;0.10;;;;;;;;;;4923497;29;20042;-91
2023/12/18 19:45:51;;;;;;;0.00;0.00;;;;;;;;;;4919746;29;20036;-91
2023/12/18 19:48:16;;;;;;;0.10;0.10;;;;;;;;;;4917794;29;20043;-91
2023/12/18 19:50:42;;;;;;;0.10;0.10;;;;;;;;;;4920198;29;20039;-92